createdAt,value
2017-10-28T00:00:06.427Z,11.02
2017-10-28T00:01:06.067Z,11.01
2017-10-28T00:02:06.391Z,11.1
2017-10-28T00:03:06.046Z,11.02
2017-10-28T00:04:06.023Z,11.06
2017-10-28T00:05:06.001Z,11.01
2017-10-28T00:06:05.993Z,11.09
2017-10-28T00:07:05.972Z,11.01
2017-10-28T00:08:06.294Z,11.01
2017-10-28T00:09:05.604Z,11.07
2017-10-28T00:10:05.919Z,10.96
2017-10-28T00:11:05.962Z,10.98
2017-10-28T00:12:05.890Z,11.07
2017-10-28T00:13:05.883Z,10.99
2017-10-28T00:14:05.862Z,11.01
2017-10-28T00:15:05.844Z,11.03
2017-10-28T00:16:05.826Z,11.09
2017-10-28T00:17:06.149Z,11.03
2017-10-28T00:18:06.139Z,10.99
2017-10-28T00:19:06.125Z,11.09
2017-10-28T00:20:05.768Z,11.03
2017-10-28T00:21:06.077Z,11.01
2017-10-28T00:22:05.729Z,11.02
2017-10-28T00:23:06.046Z,11.01
2017-10-28T00:24:05.692Z,11.06
2017-10-28T00:25:06.011Z,11.02
2017-10-28T00:26:05.668Z,10.98
2017-10-28T00:27:05.650Z,11.01
2017-10-28T00:28:05.294Z,11.03
2017-10-28T00:29:05.284Z,10.98
2017-10-28T00:30:05.956Z,11.02
2017-10-28T00:31:05.246Z,11.02
2017-10-28T00:32:05.570Z,11.06
2017-10-28T00:33:05.911Z,11.07
2017-10-28T00:34:05.532Z,11.09
2017-10-28T00:35:05.515Z,10.99
2017-10-28T00:36:05.501Z,11.01
2017-10-28T00:37:05.488Z,10.95
2017-10-28T00:38:05.465Z,11.07
2017-10-28T00:39:05.459Z,11.1
2017-10-28T00:40:05.444Z,11.01
2017-10-28T00:41:05.080Z,11.07
2017-10-28T00:42:05.402Z,11.03
2017-10-28T00:43:05.386Z,11.07
2017-10-28T00:44:05.701Z,11.07
2017-10-28T00:45:05.012Z,10.99
2017-10-28T00:46:05.669Z,11.02
2017-10-28T00:47:05.318Z,11.03
2017-10-28T00:48:05.298Z,10.99
2017-10-28T00:49:04.950Z,11.03
2017-10-28T00:50:05.617Z,10.98
2017-10-28T00:51:05.248Z,10.99
2017-10-28T00:52:05.287Z,10.95
2017-10-28T00:53:04.888Z,10.95
2017-10-28T00:54:05.199Z,10.94
2017-10-28T00:55:05.514Z,10.94
2017-10-28T00:56:05.510Z,10.94
2017-10-28T00:57:04.814Z,10.86
2017-10-28T00:58:05.137Z,10.86
2017-10-28T00:59:04.787Z,10.92
2017-10-28T01:00:04.773Z,10.88
2017-10-28T01:01:05.091Z,10.91
2017-10-28T01:02:05.071Z,10.92
2017-10-28T01:03:05.050Z,10.88
2017-10-28T01:04:05.374Z,10.91
2017-10-28T01:05:05.363Z,10.84
2017-10-28T01:06:05.004Z,10.89
2017-10-28T01:07:04.649Z,10.88
2017-10-28T01:08:04.969Z,10.96
2017-10-28T01:09:04.626Z,10.89
2017-10-28T01:10:04.936Z,10.88
2017-10-28T01:11:04.585Z,10.92
2017-10-28T01:12:04.906Z,10.91
2017-10-28T01:13:04.890Z,10.81
2017-10-28T01:14:04.869Z,10.83
2017-10-28T01:15:04.884Z,10.78
2017-10-28T01:16:05.176Z,10.74
2017-10-28T01:17:04.491Z,10.74
2017-10-28T01:18:04.468Z,10.78
2017-10-28T01:19:04.786Z,10.63
2017-10-28T01:20:04.782Z,10.76
2017-10-28T01:21:04.751Z,10.74
2017-10-28T01:22:05.106Z,10.76
2017-10-28T01:23:05.069Z,10.68
2017-10-28T01:24:05.076Z,10.74
2017-10-28T01:25:04.691Z,10.66
2017-10-28T01:26:04.336Z,10.71
2017-10-28T01:27:04.321Z,10.73
2017-10-28T01:28:04.977Z,10.73
2017-10-28T01:29:04.619Z,10.71
2017-10-28T01:30:04.273Z,10.6
2017-10-28T01:31:04.586Z,10.65
2017-10-28T01:32:04.237Z,10.73
2017-10-28T01:33:04.889Z,10.63
2017-10-28T01:34:04.550Z,10.73
2017-10-28T01:35:04.856Z,10.71
2017-10-28T01:36:04.170Z,10.66
2017-10-28T01:37:04.833Z,10.71
2017-10-28T01:38:04.484Z,10.71
2017-10-28T01:39:04.457Z,10.63
2017-10-28T01:40:04.442Z,10.68
2017-10-28T01:41:04.088Z,10.71
2017-10-28T01:42:04.079Z,10.71
2017-10-28T01:43:04.389Z,10.66
2017-10-28T01:44:04.743Z,10.68
2017-10-28T01:45:04.032Z,10.6
2017-10-28T01:46:04.003Z,10.6
2017-10-28T01:47:03.986Z,10.6
2017-10-28T01:48:04.306Z,10.59
2017-10-28T01:49:03.954Z,10.52
2017-10-28T01:50:03.939Z,10.55
2017-10-28T01:51:04.584Z,10.55
2017-10-28T01:52:04.237Z,10.59
2017-10-28T01:53:04.223Z,10.6
2017-10-28T01:54:03.870Z,10.63
2017-10-28T01:55:03.852Z,10.65
2017-10-28T01:56:04.177Z,10.62
2017-10-28T01:57:04.154Z,10.78
2017-10-28T01:58:04.136Z,10.65
2017-10-28T01:59:04.132Z,10.74
2017-10-28T02:00:04.107Z,10.66
2017-10-28T02:01:04.094Z,10.74
2017-10-28T02:02:04.406Z,10.74
2017-10-28T02:03:04.053Z,10.76
2017-10-28T02:04:03.705Z,10.7
2017-10-28T02:05:04.018Z,10.74
2017-10-28T02:06:04.003Z,10.78
2017-10-28T02:07:03.990Z,10.78
2017-10-28T02:08:03.971Z,10.76
2017-10-28T02:09:04.306Z,10.77
2017-10-28T02:10:03.611Z,10.73
2017-10-28T02:11:03.591Z,10.71
2017-10-28T02:12:04.247Z,10.65
2017-10-28T02:13:03.553Z,10.76
2017-10-28T02:14:04.197Z,10.66
2017-10-28T02:15:03.519Z,10.73
2017-10-28T02:16:04.211Z,10.74
2017-10-28T02:17:04.159Z,10.71
2017-10-28T02:18:03.473Z,10.71
2017-10-28T02:19:03.786Z,10.66
2017-10-28T02:20:03.437Z,10.73
2017-10-28T02:21:03.417Z,10.7
2017-10-28T02:22:03.732Z,10.7
2017-10-28T02:23:04.051Z,10.73
2017-10-28T02:24:03.373Z,10.7
2017-10-28T02:25:03.351Z,10.71
2017-10-28T02:26:04.009Z,10.74
2017-10-28T02:27:03.656Z,10.71
2017-10-28T02:28:03.630Z,10.68
2017-10-28T02:29:03.615Z,10.68
2017-10-28T02:30:03.603Z,10.78
2017-10-28T02:31:03.251Z,10.66
2017-10-28T02:32:03.566Z,10.71
2017-10-28T02:33:03.550Z,10.71
2017-10-28T02:34:03.531Z,10.73
2017-10-28T02:35:03.184Z,10.77
2017-10-28T02:36:03.503Z,10.73
2017-10-28T02:37:03.153Z,10.73
2017-10-28T02:38:03.472Z,10.74
2017-10-28T02:39:03.781Z,10.78
2017-10-28T02:40:03.776Z,10.74
2017-10-28T02:41:03.419Z,10.77
2017-10-28T02:42:03.732Z,10.77
2017-10-28T02:43:03.718Z,10.73
2017-10-28T02:44:03.379Z,10.6
2017-10-28T02:45:03.020Z,10.71
2017-10-28T02:46:03.004Z,10.7
2017-10-28T02:47:03.652Z,10.66
2017-10-28T02:48:03.638Z,10.7
2017-10-28T02:49:03.284Z,10.71
2017-10-28T02:50:03.601Z,10.58
2017-10-28T02:51:03.251Z,10.71
2017-10-28T02:52:03.237Z,10.7
2017-10-28T02:53:02.884Z,10.63
2017-10-28T02:54:02.864Z,10.68
2017-10-28T02:55:03.183Z,10.6
2017-10-28T02:56:02.830Z,10.59
2017-10-28T02:57:02.814Z,10.52
2017-10-28T02:58:03.139Z,10.52
2017-10-28T02:59:03.118Z,10.53
2017-10-28T03:00:03.441Z,10.52
2017-10-28T03:01:03.419Z,10.51
2017-10-28T03:02:02.732Z,10.42
2017-10-28T03:03:03.050Z,10.4
2017-10-28T03:04:02.696Z,10.4
2017-10-28T03:05:03.356Z,10.39
2017-10-28T03:06:03.024Z,10.4
2017-10-28T03:07:02.644Z,10.36
2017-10-28T03:08:02.644Z,10.33
2017-10-28T03:09:02.954Z,10.37
2017-10-28T03:10:02.931Z,10.36
2017-10-28T03:11:02.911Z,10.3
2017-10-28T03:12:02.563Z,10.25
2017-10-28T03:13:02.884Z,10.28
2017-10-28T03:14:02.865Z,10.22
2017-10-28T03:15:02.844Z,10.3
2017-10-28T03:16:02.827Z,10.18
2017-10-28T03:17:03.149Z,10.24
2017-10-28T03:18:02.463Z,10.25
2017-10-28T03:19:03.107Z,10.26
2017-10-28T03:20:02.759Z,10.3
2017-10-28T03:21:02.744Z,10.33
2017-10-28T03:22:03.057Z,10.3
2017-10-28T03:23:03.046Z,10.37
2017-10-28T03:24:03.028Z,10.3
2017-10-28T03:25:02.344Z,10.3
2017-10-28T03:26:02.995Z,10.39
2017-10-28T03:27:02.641Z,10.37
2017-10-28T03:28:02.622Z,10.32
2017-10-28T03:29:03.149Z,10.4
2017-10-28T03:30:02.595Z,10.39
2017-10-28T03:31:02.926Z,10.4
2017-10-28T03:32:02.554Z,10.43
2017-10-28T03:33:02.539Z,10.39
2017-10-28T03:34:02.527Z,10.47
2017-10-28T03:35:02.849Z,10.51
2017-10-28T03:36:02.490Z,10.53
2017-10-28T03:37:02.474Z,10.59
2017-10-28T03:38:02.458Z,10.51
2017-10-28T03:39:02.141Z,10.55
2017-10-28T03:40:02.748Z,10.58
2017-10-28T03:41:02.407Z,10.58
2017-10-28T03:42:02.718Z,10.6
2017-10-28T03:43:02.708Z,10.6
2017-10-28T03:44:02.020Z,10.6
2017-10-28T03:45:02.335Z,10.53
2017-10-28T03:46:02.650Z,10.63
2017-10-28T03:47:02.308Z,10.53
2017-10-28T03:48:02.621Z,10.55
2017-10-28T03:49:01.935Z,10.55
2017-10-28T03:50:02.249Z,10.53
2017-10-28T03:51:01.899Z,10.56
2017-10-28T03:52:02.222Z,10.53
2017-10-28T03:53:02.530Z,10.55
2017-10-28T03:54:01.853Z,10.56
2017-10-28T03:55:02.169Z,10.66
2017-10-28T03:56:02.483Z,10.65
2017-10-28T03:57:02.133Z,10.65
2017-10-28T03:58:02.115Z,10.6
2017-10-28T03:59:01.765Z,10.62
2017-10-28T04:00:02.084Z,10.6
2017-10-28T04:01:01.735Z,10.55
2017-10-28T04:02:02.045Z,10.65
2017-10-28T04:03:02.030Z,10.74
2017-10-28T04:04:02.341Z,10.76
2017-10-28T04:05:02.001Z,10.68
2017-10-28T04:06:01.979Z,10.68
2017-10-28T04:07:01.963Z,10.68
2017-10-28T04:08:01.943Z,10.74
2017-10-28T04:09:02.267Z,10.8
2017-10-28T04:10:01.578Z,10.78
2017-10-28T04:11:02.235Z,10.81
2017-10-28T04:12:01.879Z,10.78
2017-10-28T04:13:01.865Z,10.74
2017-10-28T04:14:01.512Z,10.8
2017-10-28T04:15:01.847Z,10.7
2017-10-28T04:16:01.812Z,10.68
2017-10-28T04:17:01.796Z,10.73
2017-10-28T04:18:01.785Z,10.74
2017-10-28T04:19:01.424Z,10.73
2017-10-28T04:20:01.751Z,10.76
2017-10-28T04:21:01.733Z,10.73
2017-10-28T04:22:02.043Z,10.7
2017-10-28T04:23:01.359Z,10.63
2017-10-28T04:24:02.014Z,10.73
2017-10-28T04:25:01.334Z,10.76
2017-10-28T04:26:01.979Z,10.65
2017-10-28T04:27:01.624Z,10.74
2017-10-28T04:28:01.272Z,10.68
2017-10-28T04:29:01.592Z,10.8
2017-10-28T04:30:01.909Z,10.73
2017-10-28T04:31:01.887Z,10.7
2017-10-28T04:32:01.878Z,10.7
2017-10-28T04:33:01.526Z,10.74
2017-10-28T04:34:01.849Z,10.77
2017-10-28T04:35:01.843Z,10.76
2017-10-28T04:36:01.482Z,10.71
2017-10-28T04:37:01.458Z,10.78
2017-10-28T04:38:01.443Z,10.77
2017-10-28T04:39:01.762Z,10.78
2017-10-28T04:40:01.412Z,10.84
2017-10-28T04:41:01.392Z,10.83
2017-10-28T04:42:01.052Z,10.83
2017-10-28T04:43:01.363Z,10.8
2017-10-28T04:44:01.006Z,10.76
2017-10-28T04:45:01.656Z,10.83
2017-10-28T04:46:01.302Z,10.8
2017-10-28T04:47:01.287Z,10.81
2017-10-28T04:48:01.271Z,10.84
2017-10-28T04:49:01.596Z,10.78
2017-10-28T04:50:01.237Z,10.78
2017-10-28T04:51:01.222Z,10.74
2017-10-28T04:52:01.558Z,10.74
2017-10-28T04:53:01.190Z,10.74
2017-10-28T04:54:00.835Z,10.74
2017-10-28T04:55:01.158Z,10.73
2017-10-28T04:56:01.474Z,10.74
2017-10-28T04:57:01.456Z,10.68
2017-10-28T04:58:00.770Z,10.71
2017-10-28T04:59:01.094Z,10.71
2017-10-28T05:00:01.406Z,10.7
2017-10-28T05:01:01.055Z,10.74
2017-10-28T05:02:00.699Z,10.76
2017-10-28T05:03:00.688Z,10.7
2017-10-28T05:04:01.003Z,10.71
2017-10-28T05:05:00.981Z,10.68
2017-10-28T05:06:00.686Z,10.7
2017-10-28T05:07:00.616Z,10.74
2017-10-28T05:08:00.964Z,10.71
2017-10-28T05:09:00.581Z,10.74
2017-10-28T05:10:01.231Z,10.76
2017-10-28T05:11:00.597Z,10.71
2017-10-28T05:12:00.535Z,10.73
2017-10-28T05:13:01.193Z,10.76
2017-10-28T05:14:00.834Z,10.77
2017-10-28T05:15:01.146Z,10.8
2017-10-28T05:16:01.128Z,10.78
2017-10-28T05:17:00.783Z,10.81
2017-10-28T05:18:00.766Z,10.78
2017-10-28T05:19:01.083Z,10.74
2017-10-28T05:20:00.399Z,10.78
2017-10-28T05:21:00.714Z,10.83
2017-10-28T05:22:01.029Z,10.83
2017-10-28T05:23:00.687Z,10.77
2017-10-28T05:24:00.329Z,10.84
2017-10-28T05:25:00.661Z,10.96
2017-10-28T05:26:00.634Z,10.98
2017-10-28T05:27:00.302Z,10.81
2017-10-28T05:28:00.607Z,10.86
2017-10-28T05:29:01.119Z,10.81
2017-10-28T05:30:00.570Z,10.76
2017-10-28T05:31:00.887Z,10.86
2017-10-28T05:32:00.539Z,10.86
2017-10-28T05:33:00.515Z,10.83
2017-10-28T05:34:00.165Z,10.81
2017-10-28T05:35:00.819Z,10.84
2017-10-28T05:36:00.791Z,10.78
2017-10-28T05:37:00.495Z,10.77
2017-10-28T05:38:00.095Z,10.76
2017-10-28T05:39:00.080Z,10.78
2017-10-28T05:40:00.394Z,10.77
2017-10-28T05:41:00.381Z,10.83
2017-10-28T05:42:00.354Z,10.88
2017-10-28T05:43:00.011Z,10.78
2017-10-28T05:43:59.994Z,10.81
2017-10-28T05:45:00.647Z,10.8
2017-10-28T05:46:00.629Z,10.83
2017-10-28T05:47:00.277Z,10.8
2017-10-28T05:48:00.253Z,10.8
2017-10-28T05:49:00.569Z,10.86
2017-10-28T05:50:00.225Z,10.78
2017-10-28T05:51:00.207Z,10.8
2017-10-28T05:51:59.853Z,10.83
2017-10-28T05:52:59.842Z,10.84
2017-10-28T05:54:00.492Z,10.81
2017-10-28T05:55:00.140Z,10.81
2017-10-28T05:56:00.120Z,10.81
2017-10-28T05:56:59.769Z,10.84
2017-10-28T05:58:00.091Z,10.83
2017-10-28T05:59:00.405Z,10.81
2017-10-28T06:00:00.057Z,10.81
2017-10-28T06:00:59.704Z,10.81
2017-10-28T06:02:00.022Z,10.84
2017-10-28T06:03:00.037Z,10.73
2017-10-28T06:03:59.989Z,10.74
2017-10-28T06:04:59.973Z,10.8
2017-10-28T06:05:59.955Z,10.8
2017-10-28T06:06:59.939Z,10.73
2017-10-28T06:08:00.254Z,10.81
2017-10-28T06:09:00.244Z,10.78
2017-10-28T06:09:59.884Z,10.81
2017-10-28T06:11:00.204Z,10.71
2017-10-28T06:12:00.334Z,10.8
2017-10-28T06:12:59.835Z,10.71
2017-10-28T06:13:59.483Z,10.74
2017-10-28T06:14:59.806Z,10.76
2017-10-28T06:15:59.792Z,10.73
2017-10-28T06:16:59.441Z,10.65
2017-10-28T06:17:59.752Z,10.68
2017-10-28T06:18:59.735Z,10.74
2017-10-28T06:19:59.727Z,10.71
2017-10-28T06:20:59.708Z,10.73
2017-10-28T06:21:59.688Z,10.8
2017-10-28T06:22:59.337Z,10.76
2017-10-28T06:23:59.648Z,10.74
2017-10-28T06:24:59.634Z,10.8
2017-10-28T06:25:59.616Z,10.77
2017-10-28T06:26:59.266Z,10.76
2017-10-28T06:27:59.247Z,10.78
2017-10-28T06:28:59.899Z,10.74
2017-10-28T06:29:59.890Z,10.74
2017-10-28T06:30:59.537Z,10.78
2017-10-28T06:31:59.519Z,10.73
2017-10-28T06:32:59.505Z,10.73
2017-10-28T06:33:59.484Z,10.7
2017-10-28T06:34:59.463Z,10.74
2017-10-28T06:35:59.449Z,10.74
2017-10-28T06:36:59.432Z,10.77
2017-10-28T06:37:59.085Z,10.8
2017-10-28T06:38:59.061Z,10.8
2017-10-28T06:39:59.386Z,10.8
2017-10-28T06:40:59.362Z,10.83
2017-10-28T06:41:59.680Z,10.76
2017-10-28T06:42:59.678Z,10.78
2017-10-28T06:43:59.310Z,10.78
2017-10-28T06:44:59.629Z,10.83
2017-10-28T06:45:58.946Z,10.77
2017-10-28T06:46:59.592Z,10.8
2017-10-28T06:47:58.909Z,10.71
2017-10-28T06:48:58.891Z,10.73
2017-10-28T06:49:58.876Z,10.77
2017-10-28T06:50:58.857Z,10.77
2017-10-28T06:51:59.517Z,10.83
2017-10-28T06:52:59.500Z,10.77
2017-10-28T06:53:58.814Z,10.76
2017-10-28T06:54:59.143Z,10.78
2017-10-28T06:55:59.446Z,10.81
2017-10-28T06:56:58.763Z,10.83
2017-10-28T06:57:59.077Z,10.8
2017-10-28T06:58:59.062Z,10.8
2017-10-28T06:59:59.042Z,10.84
2017-10-28T07:00:58.692Z,10.78
2017-10-28T07:01:59.343Z,10.83
2017-10-28T07:02:59.002Z,10.78
2017-10-28T07:03:59.308Z,10.8
2017-10-28T07:04:58.967Z,10.76
2017-10-28T07:05:58.949Z,10.8
2017-10-28T07:06:58.604Z,10.81
2017-10-28T07:07:58.575Z,10.8
2017-10-28T07:08:59.237Z,10.8
2017-10-28T07:09:59.215Z,10.76
2017-10-28T07:10:58.529Z,10.78
2017-10-28T07:11:58.844Z,10.83
2017-10-28T07:12:58.833Z,10.78
2017-10-28T07:13:59.151Z,10.78
2017-10-28T07:14:59.135Z,10.83
2017-10-28T07:15:58.783Z,10.81
2017-10-28T07:16:58.759Z,10.76
2017-10-28T07:17:58.418Z,10.8
2017-10-28T07:18:58.728Z,10.86
2017-10-28T07:19:58.724Z,10.78
2017-10-28T07:20:59.023Z,10.78
2017-10-28T07:21:58.342Z,10.8
2017-10-28T07:22:59.009Z,10.8
2017-10-28T07:23:58.311Z,10.78
2017-10-28T07:24:58.985Z,10.78
2017-10-28T07:25:58.620Z,10.8
2017-10-28T07:26:58.590Z,10.77
2017-10-28T07:27:58.908Z,10.78
2017-10-28T07:28:58.776Z,10.86
2017-10-28T07:29:58.545Z,10.78
2017-10-28T07:30:58.195Z,10.77
2017-10-28T07:31:58.174Z,10.8
2017-10-28T07:32:58.834Z,10.86
2017-10-28T07:33:58.166Z,10.76
2017-10-28T07:34:58.503Z,10.83
2017-10-28T07:35:58.439Z,10.77
2017-10-28T07:36:58.428Z,10.8
2017-10-28T07:37:58.073Z,10.78
2017-10-28T07:38:58.055Z,10.71
2017-10-28T07:39:58.058Z,10.74
2017-10-28T07:40:58.360Z,10.76
2017-10-28T07:41:58.670Z,10.77
2017-10-28T07:42:58.654Z,10.81
2017-10-28T07:43:57.972Z,10.84
2017-10-28T07:44:57.953Z,10.8
2017-10-28T07:45:58.273Z,10.77
2017-10-28T07:46:58.257Z,10.81
2017-10-28T07:47:58.238Z,10.81
2017-10-28T07:48:58.225Z,10.81
2017-10-28T07:49:58.536Z,10.76
2017-10-28T07:50:58.188Z,10.8
2017-10-28T07:51:57.834Z,10.78
2017-10-28T07:52:58.147Z,10.84
2017-10-28T07:53:58.131Z,10.83
2017-10-28T07:54:58.119Z,10.83
2017-10-28T07:55:58.102Z,10.84
2017-10-28T07:56:58.089Z,10.83
2017-10-28T07:57:58.404Z,10.8
2017-10-28T07:58:57.718Z,10.76
2017-10-28T07:59:58.054Z,10.77
2017-10-28T08:00:58.016Z,10.81
2017-10-28T08:01:58.333Z,10.78
2017-10-28T08:02:57.651Z,10.83
2017-10-28T08:03:57.965Z,10.84
2017-10-28T08:04:57.617Z,10.91
2017-10-28T08:05:57.932Z,10.8
2017-10-28T08:06:57.582Z,10.89
2017-10-28T08:07:57.908Z,10.88
2017-10-28T08:08:57.549Z,10.86
2017-10-28T08:09:58.208Z,10.77
2017-10-28T08:10:58.192Z,10.83
2017-10-28T08:11:57.831Z,10.8
2017-10-28T08:12:57.817Z,10.78
2017-10-28T08:13:57.465Z,10.81
2017-10-28T08:14:57.791Z,10.78
2017-10-28T08:15:57.432Z,10.8
2017-10-28T08:16:57.754Z,10.78
2017-10-28T08:17:57.740Z,10.77
2017-10-28T08:18:58.053Z,10.94
2017-10-28T08:19:57.703Z,10.86
2017-10-28T08:20:57.683Z,10.84
2017-10-28T08:21:57.663Z,10.88
2017-10-28T08:22:57.317Z,10.91
2017-10-28T08:23:57.634Z,10.98
2017-10-28T08:24:57.625Z,10.92
2017-10-28T08:25:57.940Z,10.86
2017-10-28T08:26:57.578Z,10.91
2017-10-28T08:27:57.233Z,10.88
2017-10-28T08:28:57.881Z,10.92
2017-10-28T08:29:57.534Z,10.89
2017-10-28T08:30:57.185Z,10.88
2017-10-28T08:31:57.167Z,10.89
2017-10-28T08:32:57.151Z,10.98
2017-10-28T08:33:57.799Z,10.89
2017-10-28T08:34:57.448Z,10.96
2017-10-28T08:35:57.098Z,10.99
2017-10-28T08:36:57.752Z,10.94
2017-10-28T08:37:57.734Z,10.92
2017-10-28T08:38:57.714Z,10.92
2017-10-28T08:39:57.363Z,10.94
2017-10-28T08:40:57.017Z,10.91
2017-10-28T08:41:57.330Z,10.94
2017-10-28T08:42:57.653Z,10.94
2017-10-28T08:43:57.297Z,10.95
2017-10-28T08:44:57.615Z,10.92
2017-10-28T08:45:57.266Z,10.99
2017-10-28T08:46:57.247Z,10.92
2017-10-28T08:47:56.897Z,11.01
2017-10-28T08:48:57.215Z,10.94
2017-10-28T08:49:57.210Z,10.92
2017-10-28T08:50:56.859Z,11.01
2017-10-28T08:51:57.164Z,11.03
2017-10-28T08:52:57.489Z,11.01
2017-10-28T08:53:57.151Z,10.99
2017-10-28T08:54:57.458Z,10.99
2017-10-28T08:55:57.104Z,10.99
2017-10-28T08:56:57.082Z,11.03
2017-10-28T08:57:57.064Z,10.99
2017-10-28T08:58:57.054Z,11.07
2017-10-28T08:59:57.038Z,11.01
2017-10-28T09:00:56.681Z,11.03
2017-10-28T09:01:57.004Z,11.06
2017-10-28T09:02:57.319Z,11.07
2017-10-28T09:03:56.635Z,11.09
2017-10-28T09:04:57.284Z,11.1
2017-10-28T09:05:56.945Z,11.02
2017-10-28T09:06:57.258Z,11.09
2017-10-28T09:07:56.897Z,11.1
2017-10-28T09:08:57.221Z,11.07
2017-10-28T09:09:56.864Z,11.1
2017-10-28T09:10:56.851Z,11.06
2017-10-28T09:11:56.834Z,11.06
2017-10-28T09:12:56.818Z,11.11
2017-10-28T09:13:57.148Z,11.07
2017-10-28T09:14:56.450Z,11.01
2017-10-28T09:15:56.768Z,11.13
2017-10-28T09:16:56.418Z,11.11
2017-10-28T09:17:56.417Z,11.1
2017-10-28T09:18:56.717Z,11.1
2017-10-28T09:19:57.044Z,11.14
2017-10-28T09:20:56.355Z,11.14
2017-10-28T09:21:56.670Z,11.16
2017-10-28T09:22:57.026Z,11.11
2017-10-28T09:23:56.660Z,11.1
2017-10-28T09:24:56.965Z,11.1
2017-10-28T09:25:56.607Z,11.14
2017-10-28T09:26:56.603Z,11.1
2017-10-28T09:27:56.925Z,11.13
2017-10-28T09:28:56.756Z,11.16
2017-10-28T09:29:56.542Z,11.1
2017-10-28T09:30:56.522Z,11.13
2017-10-28T09:31:56.183Z,11.17
2017-10-28T09:32:56.157Z,11.19
2017-10-28T09:33:56.147Z,11.2
2017-10-28T09:34:56.796Z,11.1
2017-10-28T09:35:56.443Z,11.1
2017-10-28T09:36:56.087Z,11.14
2017-10-28T09:37:56.415Z,11.11
2017-10-28T09:38:56.060Z,11.16
2017-10-28T09:39:56.708Z,11.14
2017-10-28T09:40:56.360Z,11.14
2017-10-28T09:41:56.008Z,11.11
2017-10-28T09:42:56.325Z,11.16
2017-10-28T09:43:56.648Z,11.16
2017-10-28T09:44:56.306Z,11.2
2017-10-28T09:45:56.618Z,11.16
2017-10-28T09:46:55.924Z,11.14
2017-10-28T09:47:56.244Z,11.02
2017-10-28T09:48:56.556Z,11.11
2017-10-28T09:49:56.205Z,11.11
2017-10-28T09:50:56.203Z,11.16
2017-10-28T09:51:56.482Z,11.11
2017-10-28T09:52:56.177Z,11.13
2017-10-28T09:53:56.479Z,11.16
2017-10-28T09:54:56.132Z,11.13
2017-10-28T09:55:56.444Z,11.06
2017-10-28T09:56:56.146Z,11.17
2017-10-28T09:57:56.416Z,11.11
2017-10-28T09:58:56.059Z,11.1
2017-10-28T09:59:56.050Z,11.17
2017-10-28T10:00:56.030Z,11.11
2017-10-28T10:01:56.435Z,11.16
2017-10-28T10:02:55.662Z,11.19
2017-10-28T10:03:56.316Z,11.16
2017-10-28T10:04:55.960Z,11.2
2017-10-28T10:05:56.318Z,11.13
2017-10-28T10:06:55.955Z,11.21
2017-10-28T10:07:55.943Z,11.19
2017-10-28T10:08:55.931Z,11.2
2017-10-28T10:09:55.897Z,11.14
2017-10-28T10:10:55.920Z,11.17
2017-10-28T10:11:55.847Z,11.2
2017-10-28T10:12:56.176Z,11.17
2017-10-28T10:13:56.240Z,11.27
2017-10-28T10:14:55.827Z,11.21
2017-10-28T10:15:56.136Z,11.25
2017-10-28T10:16:55.920Z,11.2
2017-10-28T10:17:55.418Z,11.2
2017-10-28T10:18:55.397Z,11.2
2017-10-28T10:19:55.713Z,11.24
2017-10-28T10:20:55.704Z,11.2
2017-10-28T10:21:56.016Z,11.25
2017-10-28T10:22:56.017Z,11.32
2017-10-28T10:23:55.317Z,11.28
2017-10-28T10:24:55.656Z,11.24
2017-10-28T10:25:55.950Z,11.19
2017-10-28T10:26:55.598Z,11.19
2017-10-28T10:27:55.920Z,11.25
2017-10-28T10:28:55.569Z,11.28
2017-10-28T10:29:55.554Z,11.31
2017-10-28T10:30:55.898Z,11.29
2017-10-28T10:31:55.725Z,11.29
2017-10-28T10:32:55.513Z,11.29
2017-10-28T10:33:55.158Z,11.29
2017-10-28T10:34:55.150Z,11.28
2017-10-28T10:35:55.461Z,11.25
2017-10-28T10:36:55.439Z,11.28
2017-10-28T10:37:55.756Z,11.31
2017-10-28T10:38:55.739Z,11.28
2017-10-28T10:39:55.726Z,11.31
2017-10-28T10:40:55.709Z,11.27
2017-10-28T10:41:55.353Z,11.24
2017-10-28T10:42:55.679Z,11.27
2017-10-28T10:43:55.658Z,11.31
2017-10-28T10:44:55.308Z,11.28
2017-10-28T10:45:55.293Z,11.31
2017-10-28T10:46:55.607Z,11.34
2017-10-28T10:47:54.921Z,11.34
2017-10-28T10:48:55.240Z,11.29
2017-10-28T10:49:55.220Z,11.36
2017-10-28T10:50:54.877Z,11.29
2017-10-28T10:51:55.187Z,11.35
2017-10-28T10:52:55.184Z,11.28
2017-10-28T10:53:55.156Z,11.31
2017-10-28T10:54:55.480Z,11.28
2017-10-28T10:55:55.126Z,11.31
2017-10-28T10:56:55.117Z,11.32
2017-10-28T10:57:55.425Z,11.31
2017-10-28T10:58:55.435Z,11.35
2017-10-28T10:59:55.068Z,11.28
2017-10-28T11:00:55.043Z,11.31
2017-10-28T11:01:55.028Z,11.32
2017-10-28T11:02:55.044Z,11.32
2017-10-28T11:03:55.013Z,11.43
2017-10-28T11:04:54.986Z,11.25
2017-10-28T11:05:54.964Z,11.38
2017-10-28T11:06:55.287Z,11.43
2017-10-28T11:07:55.295Z,11.34
2017-10-28T11:08:55.256Z,11.41
2017-10-28T11:09:55.244Z,11.32
2017-10-28T11:10:54.886Z,11.36
2017-10-28T11:11:55.202Z,11.39
2017-10-28T11:12:55.190Z,11.35
2017-10-28T11:13:55.167Z,11.34
2017-10-28T11:14:54.820Z,11.34
2017-10-28T11:15:54.812Z,11.41
2017-10-28T11:16:54.796Z,11.31
2017-10-28T11:17:54.772Z,11.43
2017-10-28T11:18:55.094Z,11.46
2017-10-28T11:19:54.738Z,11.46
2017-10-28T11:20:54.718Z,11.44
2017-10-28T11:21:55.053Z,11.44
2017-10-28T11:22:55.028Z,11.47
2017-10-28T11:23:54.675Z,11.5
2017-10-28T11:24:54.655Z,11.54
2017-10-28T11:25:54.645Z,11.56
2017-10-28T11:26:54.961Z,11.52
2017-10-28T11:27:54.946Z,11.49
2017-10-28T11:28:54.460Z,11.5
2017-10-28T11:29:54.578Z,11.56
2017-10-28T11:30:54.233Z,11.5
2017-10-28T11:31:54.878Z,11.59
2017-10-28T11:32:54.530Z,11.56
2017-10-28T11:33:54.518Z,11.56
2017-10-28T11:34:54.506Z,11.56
2017-10-28T11:35:54.809Z,11.56
2017-10-28T11:36:54.800Z,11.64
2017-10-28T11:37:54.454Z,11.65
2017-10-28T11:38:54.102Z,11.53
2017-10-28T11:39:54.724Z,11.52
2017-10-28T11:40:54.766Z,11.54
2017-10-28T11:41:54.381Z,11.56
2017-10-28T11:42:54.699Z,11.64
2017-10-28T11:43:54.345Z,11.65
2017-10-28T11:44:54.335Z,11.59
2017-10-28T11:45:53.987Z,11.62
2017-10-28T11:46:54.295Z,11.67
2017-10-28T11:47:53.949Z,11.74
2017-10-28T11:48:54.604Z,11.64
2017-10-28T11:49:54.586Z,11.82
2017-10-28T11:50:54.245Z,11.67
2017-10-28T11:51:54.229Z,11.75
2017-10-28T11:52:54.553Z,11.82
2017-10-28T11:53:54.188Z,11.78
2017-10-28T11:54:54.171Z,11.77
2017-10-28T11:55:54.154Z,11.77
2017-10-28T11:56:54.136Z,11.82
2017-10-28T11:57:54.141Z,11.78
2017-10-28T11:58:54.444Z,11.78
2017-10-28T11:59:54.096Z,11.85
2017-10-28T12:00:54.080Z,11.8
2017-10-28T12:01:53.732Z,11.7
2017-10-28T12:02:54.376Z,11.72
2017-10-28T12:03:54.037Z,11.82
2017-10-28T12:04:53.676Z,11.7
2017-10-28T12:05:53.997Z,11.83
2017-10-28T12:06:53.989Z,11.82
2017-10-28T12:07:53.963Z,11.78
2017-10-28T12:08:53.619Z,11.8
2017-10-28T12:09:53.608Z,11.9
2017-10-28T12:10:53.920Z,11.99
2017-10-28T12:11:53.909Z,11.87
2017-10-28T12:12:53.938Z,11.94
2017-10-28T12:13:53.868Z,11.9
2017-10-28T12:14:53.528Z,11.96
2017-10-28T12:15:54.173Z,11.96
2017-10-28T12:16:54.163Z,11.99
2017-10-28T12:17:54.142Z,11.96
2017-10-28T12:18:53.800Z,11.96
2017-10-28T12:19:53.771Z,11.86
2017-10-28T12:20:53.756Z,11.96
2017-10-28T12:21:54.073Z,11.96
2017-10-28T12:22:53.736Z,12.05
2017-10-28T12:23:53.712Z,11.97
2017-10-28T12:24:53.701Z,12.02
2017-10-28T12:25:53.678Z,12.06
2017-10-28T12:26:53.668Z,12.06
2017-10-28T12:27:53.326Z,12.06
2017-10-28T12:28:53.978Z,12.12
2017-10-28T12:29:53.286Z,12.09
2017-10-28T12:30:53.599Z,11.97
2017-10-28T12:31:53.923Z,11.99
2017-10-28T12:32:53.911Z,12.02
2017-10-28T12:33:53.632Z,11.97
2017-10-28T12:34:53.543Z,11.97
2017-10-28T12:35:53.866Z,12.04
2017-10-28T12:36:53.837Z,12.06
2017-10-28T12:37:53.496Z,12.06
2017-10-28T12:38:53.475Z,12.12
2017-10-28T12:39:53.133Z,12.16
2017-10-28T12:40:53.111Z,12.19
2017-10-28T12:41:53.771Z,12.2
2017-10-28T12:42:53.412Z,12.19
2017-10-28T12:43:53.402Z,12.26
2017-10-28T12:44:53.053Z,12.15
2017-10-28T12:45:53.711Z,12.15
2017-10-28T12:46:53.361Z,12.16
2017-10-28T12:47:53.336Z,12.21
2017-10-28T12:48:53.651Z,12.21
2017-10-28T12:49:53.641Z,12.21
2017-10-28T12:50:53.290Z,12.27
2017-10-28T12:51:53.276Z,12.23
2017-10-28T12:52:52.923Z,12.38
2017-10-28T12:53:53.574Z,12.3
2017-10-28T12:54:53.224Z,12.21
2017-10-28T12:55:53.210Z,12.21